• Join FlightAware (Why Join?)
  • Login
  • US Flag 
03:59PM EST


 

Airport Tracker/Info


-or-


 

Live Flight TrackerFlight Track Log ✈ DAL863 ✈ 22-Jun-2013 ✈ KJFK - KLAX

Flight Track Log - Related Links

Times and Time Zones

All times are in EDT time to prevent confusion due to time zone crossing. See the DAL863 flight status page for this flight to view local times or setup timezone preferences in your user account.

Time Position Orientation Groundspeed Altitude Reporting Facility
EDT Latitude Longitude Course Direction KTS MPH feet Rate Location/Type
12:13PM 40.6000 -73.7667 237° Southwest 190 219 1,900  Level New York TRACON
12:14PM 40.5333 -73.7500 169° South 252 290 4,200 1,860 Climbing New York TRACON
12:15PM 40.4082 -74.1309 232° Southwest  Level FlightAware Approximate
12:15PM 40.4833 -73.8167 225° Southwest 271 312 5,700  Level New York TRACON
12:16PM 40.3340 -74.2545 232° Southwest  Level FlightAware Approximate
12:16PM 40.4333 -73.8833 225° Southwest 269 310 9,200  Level New York TRACON
12:17PM 40.2580 -74.3753 217° Southwest  Level FlightAware Approximate
12:18PM 40.1913 -74.5008 237° Southwest  Level FlightAware Approximate
12:18PM 40.3642 -74.0397 240° Southwest 328 377 12,000  Level New York Center
12:19PM 40.3211 -74.1656 246° West 351 404 12,000 480 Level New York Center
12:20PM 40.2825 -74.2753 245° Southwest 358 412 13,000 1,800 Climbing New York Center
12:21PM 40.2347 -74.4061 244° Southwest 384 442 15,600 1,860 Climbing New York Center
12:22PM 40.1967 -74.5561 252° West 399 459 16,900 1,140 Climbing New York Center
12:23PM 40.1856 -74.7050 264° West 399 459 17,900 1,380 Climbing New York Center
12:24PM 40.1725 -74.8428 263° West 430 495 19,700 1,860 Climbing New York Center
12:25PM 40.1628 -74.9972 265° West 430 495 21,700 1,860 Climbing New York Center
12:26PM 40.1508 -75.1594 265° West 441 507 23,500 1,560 Climbing New York Center
12:27PM 40.1358 -75.3294 263° West 457 526 25,000 1,680 Climbing New York Center
12:28PM 40.1228 -75.5022 264° West 472 543 26,900 1,860 Climbing New York Center
12:29PM 40.1097 -75.6725 264° West 479 551 28,700 1,740 Climbing New York Center
12:30PM 40.0653 -75.8375 251° West 479 551 30,500 1,620 Climbing New York Center
12:31PM 40.0122 -75.9964 246° West 479 551 32,100 1,080 Climbing New York Center
12:33PM 39.8989 -76.3461 247° West 478 550 34,000 600 Climbing Washington Center
12:34PM 39.8478 -76.5050 247° West 484 557 34,000  Level Washington Center
12:35PM 39.7861 -76.6633 243° Southwest 484 557 34,000  Level Washington Center
12:36PM 39.7325 -76.8244 247° West 484 557 34,000  Level Washington Center
12:37PM 39.6806 -76.9856 247° West 484 557 34,000  Level Washington Center
12:38PM 39.6244 -77.1486 246° West 484 557 34,000  Level Washington Center
12:39PM 39.5703 -77.3064 246° West 484 557 34,000  Level Washington Center
12:40PM 39.5200 -77.4531 246° West 500 575 34,000  Level Washington Center
12:41PM 39.4653 -77.6158 247° West 500 575 34,000  Level Washington Center
12:42PM 39.4083 -77.7808 246° West 500 575 34,000  Level Washington Center
12:43PM 39.3469 -77.9400 244° Southwest 500 575 34,000  Level Washington Center
12:44PM 39.2853 -78.1042 244° Southwest 500 575 34,000  Level Washington Center
12:45PM 39.2367 -78.2311 244° Southwest 505 581 34,000  Level Washington Center
12:46PM 39.1594 -78.4211 242° Southwest 505 581 34,000  Level Washington Center
12:47PM 39.0931 -78.5844 242° Southwest 505 581 34,000  Level Washington Center
12:48PM 39.0239 -78.7631 244° Southwest 505 581 34,000  Level Washington Center
12:49PM 39.0069 -78.9253 262° West 497 572 34,000  Level Washington Center
12:50PM 38.9789 -79.1031 259° West 509 586 34,000  Level Washington Center
12:51PM 38.9539 -79.3100 261° West 526 605 34,000  Level Washington Center
12:52PM 38.9261 -79.4608 257° West 519 597 34,000  Level Washington Center
12:53PM 38.8967 -79.6592 259° West 519 597 34,000  Level Washington Center
12:54PM 38.8722 -79.8233 259° West 534 615 34,000  Level Washington Center
12:55PM 38.8428 -80.0028 258° West 523 602 34,000  Level Washington Center
12:56PM 38.8144 -80.2539 262° West 515 593 34,000  Level Indianapolis Center
12:57PM 38.8094 -80.4392 268° West 519 597 34,000  Level Indianapolis Center
12:58PM 38.8050 -80.6222 268° West 518 596 34,000  Level Indianapolis Center
12:59PM 38.7994 -80.8081 268° West 521 600 34,000  Level Indianapolis Center
01:00PM 38.7933 -80.9928 268° West 521 600 34,000  Level Indianapolis Center
01:01PM 38.7861 -81.2147 268° West 521 600 34,000  Level Indianapolis Center
01:02PM 38.7811 -81.3975 268° West 520 598 34,000  Level Indianapolis Center
01:03PM 38.7728 -81.5931 267° West 531 611 34,000  Level Indianapolis Center
01:04PM 38.7664 -81.7631 267° West 530 610 34,000  Level Indianapolis Center
01:05PM 38.7561 -81.9836 267° West 522 601 34,000  Level Indianapolis Center
01:06PM 38.7489 -82.1711 267° West 526 605 34,000  Level Indianapolis Center
01:07PM 38.7422 -82.3581 267° West 526 605 34,000  Level Indianapolis Center
01:08PM 38.7344 -82.5472 267° West 530 610 34,000  Level Indianapolis Center
01:09PM 38.7267 -82.7361 267° West 531 611 34,000  Level Indianapolis Center
01:10PM 38.7186 -82.9247 267° West 531 611 34,000  Level Indianapolis Center
01:11PM 38.7097 -83.1161 267° West 534 615 34,000 360 Level Indianapolis Center
01:12PM 38.6997 -83.3261 267° West 536 617 34,800 900 Climbing Indianapolis Center
01:14PM 38.6903 -83.5172 266° West 533 613 35,900 540 Climbing Indianapolis Center
01:15PM 38.6811 -83.7081 267° West 532 612 36,000  Climbing Indianapolis Center
01:16PM 38.6692 -83.9328 266° West 535 616 36,000  Level Indianapolis Center
01:17PM 38.6594 -84.1219 266° West 531 611 36,000  Level Indianapolis Center
01:18PM 38.6508 -84.3111 267° West 529 609 36,000  Level Indianapolis Center
01:19PM 38.6592 -84.4983 273° West 523 602 36,000  Level Indianapolis Center
01:20PM 38.6697 -84.6722 274° West 521 600 36,000  Level Indianapolis Center
01:21PM 38.6814 -84.8558 275° West 518 596 36,000  Level Indianapolis Center
01:22PM 38.6933 -85.0772 274° West 517 595 36,000  Level Indianapolis Center
01:23PM 38.7031 -85.2611 274° West 518 596 36,000  Level Indianapolis Center
01:24PM 38.7125 -85.4456 274° West 519 597 36,000  Level Indianapolis Center
01:25PM 38.7219 -85.6317 274° West 523 602 36,000  Level Indianapolis Center
01:26PM 38.7311 -85.8181 274° West 524 603 36,000  Level Indianapolis Center
01:27PM 38.7397 -86.0114 273° West 523 602 36,000  Level Indianapolis Center
01:28PM 38.7486 -86.1975 274° West 525 604 36,000  Level Indianapolis Center
01:29PM 38.7569 -86.3831 273° West 521 600 36,000  Level Indianapolis Center
01:30PM 38.7656 -86.6058 273° West 523 602 36,000  Level Indianapolis Center
01:31PM 38.7742 -86.7897 273° West 521 600 36,000  Level Indianapolis Center
01:32PM 38.7808 -86.9733 273° West 520 598 36,000  Level Indianapolis Center
01:33PM 38.7889 -87.1567 273° West 520 598 36,000  Level Indianapolis Center
01:34PM 38.7947 -87.3389 272° West 517 595 36,000  Level Indianapolis Center
01:35PM 38.7858 -87.5206 266° West 516 594 36,000  Level Indianapolis Center
01:36PM 38.7708 -87.7358 265° West 509 586 36,000  Level Indianapolis Center
01:37PM 38.7606 -87.9164 266° West 510 587 36,000  Level Indianapolis Center
01:38PM 38.7492 -88.0983 265° West 510 587 36,000  Level Indianapolis Center
01:39PM 38.7372 -88.2789 265° West 507 583 36,000  Level Kansas City Center
01:40PM 38.7064 -88.4519 257° West 499 574 36,000  Level Kansas City Center
01:41PM 38.6531 -88.6167 248° West 501 577 36,000  Level Kansas City Center
01:42PM 38.6019 -88.7886 249° West 499 574 36,000  Level Kansas City Center
01:43PM 38.5528 -88.9683 251° West 500 575 36,000  Level Kansas City Center
01:44PM 38.5128 -89.1378 253° West 500 575 36,000  Level Kansas City Center
01:45PM 38.4708 -89.3208 254° West 500 575 36,000  Level Kansas City Center
01:46PM 38.4336 -89.4919 255° West 501 577 36,000  Level Kansas City Center
01:47PM 38.4003 -89.6653 256° West 502 578 36,000  Level Kansas City Center
01:49PM 38.3711 -89.8231 257° West 502 578 36,000  Level Kansas City Center
01:50PM 38.3364 -89.9975 256° West 503 579 36,000  Level Kansas City Center
01:51PM 38.2967 -90.2064 256° West 503 579 36,000  Level Kansas City Center
01:52PM 38.2661 -90.3811 257° West 503 579 36,000  Level Kansas City Center
01:53PM 38.2397 -90.5561 259° West 502 578 36,000  Level Kansas City Center
01:54PM 38.2283 -90.7331 265° West 501 577 36,000  Level Kansas City Center
01:55PM 38.2172 -90.9089 265° West 500 575 36,000  Level Kansas City Center
01:56PM 38.2053 -91.0806 265° West 473 544 36,000  Level Kansas City Center
01:57PM 38.1925 -91.2519 265° West 483 556 36,000  Level Kansas City Center
01:58PM 38.1811 -91.4547 266° West 481 554 36,000  Level Kansas City Center
01:59PM 38.1686 -91.6256 265° West 480 552 36,000  Level Kansas City Center
02:00PM 38.1564 -91.7950 265° West 481 554 36,000  Level Kansas City Center
02:01PM 38.1439 -91.9625 265° West 474 545 36,000  Level Kansas City Center
02:02PM 38.1311 -92.1325 265° West 467 537 36,000  Level Kansas City Center
02:03PM 38.1186 -92.2975 265° West 471 542 36,000  Level Kansas City Center
02:04PM 38.1042 -92.4983 265° West 478 550 36,000  Level Kansas City Center
02:05PM 38.0897 -92.6622 264° West 472 543 36,000  Level Kansas City Center
02:06PM 38.0758 -92.8133 263° West 469 540 36,000  Level Kansas City Center
02:07PM 38.0592 -93.0111 264° West 470 541 36,000  Level Kansas City Center
02:08PM 38.0461 -93.1744 264° West 467 537 36,000  Level Kansas City Center
02:09PM 38.0317 -93.3389 264° West 469 540 36,000  Level Kansas City Center
02:10PM 38.0175 -93.5053 264° West 472 543 36,000  Level Kansas City Center
02:11PM 38.0022 -93.6711 263° West 474 545 36,000  Level Kansas City Center
02:12PM 37.9883 -93.8372 264° West 473 544 36,000  Level Kansas City Center
02:13PM 37.9700 -94.0364 263° West 475 547 36,000  Level Kansas City Center
02:14PM 37.9553 -94.1842 263° West 472 543 36,000  Level Kansas City Center
02:15PM 37.9386 -94.3650 263° West 470 541 36,000  Level Kansas City Center
02:16PM 37.9217 -94.5236 262° West 467 537 36,000  Level Kansas City Center
02:17PM 37.9050 -94.7011 263° West 459 528 36,000  Level Kansas City Center
02:19PM 37.8900 -94.8503 263° West 450 518 36,000  Level Kansas City Center
02:20PM 37.8728 -95.0206 263° West 440 506 36,000  Level Kansas City Center
02:21PM 37.8589 -95.1556 263° West 435 501 36,000  Level Kansas City Center
02:22PM 37.8428 -95.3025 262° West 428 493 36,000  Level Kansas City Center
02:23PM 37.8242 -95.4825 263° West 430 495 36,000 60 Level Kansas City Center
02:24PM 37.8086 -95.6319 263° West 430 495 36,200 600 Climbing Kansas City Center
02:25PM 37.7917 -95.7861 262° West 437 503 37,300 840 Climbing Kansas City Center
02:26PM 37.7739 -95.9408 262° West 443 510 38,000 300 Climbing Kansas City Center
02:27PM 37.7578 -96.0900 262° West 434 499 38,000  Level Kansas City Center
02:28PM 37.7400 -96.2489 262° West 436 502 38,000  Level Kansas City Center
02:29PM 37.7231 -96.4042 262° West 443 510 38,000  Level Kansas City Center
02:30PM 37.7053 -96.5594 262° West 447 514 38,000  Level Kansas City Center
02:31PM 37.6867 -96.7139 261° West 446 513 38,000  Level Kansas City Center
02:32PM 37.6653 -96.9028 262° West 452 520 38,000  Level Kansas City Center
02:33PM 37.6456 -97.0600 261° West 453 521 38,000  Level Kansas City Center
02:34PM 37.6267 -97.2169 261° West 453 521 38,000  Level Kansas City Center
02:35PM 37.6072 -97.3728 261° West 449 517 38,000  Level Kansas City Center
02:36PM 37.5883 -97.5272 261° West 444 511 38,000  Level Kansas City Center
02:37PM 37.5689 -97.6808 261° West 441 507 38,000  Level Kansas City Center
02:38PM 37.5494 -97.8339 261° West 439 505 38,000  Level Kansas City Center
02:39PM 37.5258 -98.0139 261° West 433 498 38,000  Level Kansas City Center
02:40PM 37.5072 -98.1625 261° West 428 493 38,000  Level Kansas City Center
02:41PM 37.4889 -98.3103 261° West 426 490 38,000  Level Kansas City Center
02:42PM 37.4689 -98.4581 260° West 426 490 38,000  Level Kansas City Center
02:43PM 37.4503 -98.6050 261° West 425 489 38,000  Level Kansas City Center
02:44PM 37.4303 -98.7494 260° West 421 484 38,000  Level Kansas City Center
02:45PM 37.4097 -98.8950 260° West 422 486 38,000  Level Kansas City Center
02:46PM 37.3894 -99.0419 260° West 425 489 38,000  Level Kansas City Center
02:47PM 37.3644 -99.2144 260° West 420 483 38,000  Level Kansas City Center
02:48PM 37.3433 -99.3589 260° West 420 483 38,000  Level Kansas City Center
02:50PM 37.3250 -99.4978 261° West 417 480 38,000  Level Kansas City Center
02:51PM 37.3033 -99.6592 260° West 418 481 38,000  Level Kansas City Center
02:52PM 37.2836 -99.7981 260° West 420 483 38,000  Level Kansas City Center
02:53PM 37.2586 -99.9594 259° West 421 484 38,000  Level Kansas City Center
02:54PM 37.2383 -100.0989 260° West 423 487 38,000  Level Kansas City Center
02:55PM 37.2150 -100.2614 260° West 423 487 38,000  Level Kansas City Center
02:56PM 37.1944 -100.4011 260° West 423 487 38,000  Level Kansas City Center
02:57PM 37.1719 -100.5411 259° West 425 489 38,000  Level Kansas City Center
02:58PM 37.1481 -100.7036 260° West 423 487 38,000  Level Kansas City Center
02:59PM 37.1258 -100.8433 259° West 425 489 38,000  Level Kansas City Center
03:00PM 37.1008 -101.0044 259° West 422 486 38,000  Level Kansas City Center
03:01PM 37.0792 -101.1433 259° West 423 487 38,000  Level Kansas City Center
03:02PM 37.0539 -101.3047 259° West 422 486 38,000  Level Kansas City Center
03:03PM 37.0322 -101.4406 259° West 418 481 38,000  Level Kansas City Center
03:04PM 37.0100 -101.5772 259° West 418 481 38,000  Level Kansas City Center
03:05PM 36.9842 -101.7356 259° West 417 480 38,000  Level Kansas City Center
03:06PM 36.9628 -101.8708 259° West 415 478 38,000  Level Kansas City Center
03:07PM 36.9375 -102.0297 259° West 417 480 38,000  Level Kansas City Center
03:08PM 36.9200 -102.1433 259° West 415 478 38,000  Level Albuquerque Center
03:09PM 36.8914 -102.3006 257° West 416 479 38,000  Level Albuquerque Center
03:10PM 36.8697 -102.4347 259° West 415 478 38,000  Level Albuquerque Center
03:11PM 36.8444 -102.5922 259° West 419 482 38,000  Level Albuquerque Center
03:12PM 36.8208 -102.7278 258° West 418 481 38,000  Level Albuquerque Center
03:13PM 36.7981 -102.8611 258° West 412 474 38,000  Level Albuquerque Center
03:14PM 36.7706 -103.0167 258° West 410 472 38,000  Level Albuquerque Center
03:15PM 36.7478 -103.1500 258° West 410 472 38,000  Level Albuquerque Center
03:16PM 36.7206 -103.3019 257° West 405 466 38,000  Level Albuquerque Center
03:17PM 36.6978 -103.4328 258° West 403 464 38,000  Level Albuquerque Center
03:18PM 36.6742 -103.5644 257° West 405 466 38,000  Level Albuquerque Center
03:19PM 36.6481 -103.7117 258° West 403 464 38,000  Level Albuquerque Center
03:20PM 36.6228 -103.8517 257° West 408 470 38,000  Level Albuquerque Center
03:21PM 36.5975 -103.9897 257° West 408 470 38,000  Level Albuquerque Center
03:22PM 36.5719 -104.1281 257° West 408 470 38,000  Level Albuquerque Center
03:23PM 36.5461 -104.2653 257° West 407 468 38,000  Level Albuquerque Center
03:24PM 36.5164 -104.4281 257° West 410 472 38,000  Level Albuquerque Center
03:25PM 36.4900 -104.5683 257° West 413 475 38,000  Level Albuquerque Center
03:26PM 36.4631 -104.7078 257° West 414 476 38,000  Level Albuquerque Center
03:27PM 36.4361 -104.8492 257° West 417 480 38,000  Level Albuquerque Center
03:28PM 36.4083 -104.9928 257° West 422 486 38,000  Level Albuquerque Center
03:29PM 36.3794 -105.1353 256° West 424 488 38,000  Level Albuquerque Center
03:30PM 36.3525 -105.2764 257° West 420 483 38,000  Level Albuquerque Center
03:32PM 36.3253 -105.4186 257° West 421 484 38,000  Level Albuquerque Center
03:33PM 36.2967 -105.5639 256° West 423 487 38,000  Level Albuquerque Center
03:34PM 36.2692 -105.7039 256° West 421 484 38,000  Level Albuquerque Center
03:35PM 36.2408 -105.8461 256° West 424 488 38,000  Level Albuquerque Center
03:36PM 36.2136 -105.9872 257° West 423 487 38,000  Level Albuquerque Center
03:37PM 36.1856 -106.1256 256° West 419 482 38,000  Level Albuquerque Center
03:38PM 36.1522 -106.2928 256° West 418 481 38,000  Level Albuquerque Center
03:39PM 36.1228 -106.4317 255° West 418 481 38,000  Level Albuquerque Center
03:40PM 36.0942 -106.5694 256° West 416 479 38,000  Level Albuquerque Center
03:41PM 36.0656 -106.7072 256° West 416 479 38,000  Level Albuquerque Center
03:42PM 36.0386 -106.8425 256° West 411 473 38,000  Level Albuquerque Center
03:43PM 36.0094 -106.9806 255° West 414 476 38,000  Level Albuquerque Center
03:44PM 35.9794 -107.1167 255° West 413 475 38,000  Level Albuquerque Center
03:45PM 35.9456 -107.2778 255° West 413 475 38,000  Level Albuquerque Center
03:46PM 35.9175 -107.4086 255° West 412 474 38,000  Level Albuquerque Center
03:47PM 35.8842 -107.5622 255° West 414 476 38,000  Level Albuquerque Center
03:48PM 35.8561 -107.6914 255° West 410 472 38,000  Level Albuquerque Center
03:49PM 35.8239 -107.8428 255° West 409 471 38,000  Level Albuquerque Center
03:50PM 35.7956 -107.9719 255° West 408 470 38,000  Level Albuquerque Center
03:51PM 35.7667 -108.1028 255° West 410 472 38,000  Level Albuquerque Center
03:52PM 35.7328 -108.2542 255° West 411 473 38,000  Level Albuquerque Center
03:53PM 35.7042 -108.3833 255° West 409 471 38,000  Level Albuquerque Center
03:54PM 35.6692 -108.5344 254° West 409 471 38,000  Level Albuquerque Center
03:55PM 35.6400 -108.6653 255° West 411 473 38,000  Level Albuquerque Center
03:56PM 35.6103 -108.7936 254° West 408 470 38,000  Level Albuquerque Center
03:57PM 35.5756 -108.9458 254° West 410 472 38,000  Level Albuquerque Center
03:58PM 35.5450 -109.0761 254° West 410 472 38,000  Level Albuquerque Center
03:59PM 35.5161 -109.2061 255° West 410 472 38,000  Level Albuquerque Center
04:00PM 35.4806 -109.3572 254° West 412 474 38,000  Level Albuquerque Center
04:01PM 35.4500 -109.4883 254° West 414 476 38,000  Level Albuquerque Center
04:02PM 35.4136 -109.6389 254° West 414 476 38,000  Level Albuquerque Center
04:03PM 35.3836 -109.7678 254° West 413 475 38,000  Level Albuquerque Center
04:04PM 35.3519 -109.8967 253° West 412 474 38,000  Level Albuquerque Center
04:05PM 35.3142 -110.0472 253° West 416 479 38,000  Level Albuquerque Center
04:06PM 35.2825 -110.1769 253° West 416 479 38,000  Level Albuquerque Center
04:07PM 35.2464 -110.3261 254° West 412 474 38,000  Level Albuquerque Center
04:08PM 35.2136 -110.4553 253° West 412 474 38,000  Level Albuquerque Center
04:09PM 35.1814 -110.5836 253° West 412 474 38,000  Level Albuquerque Center
04:10PM 35.1450 -110.7339 254° West 413 475 38,000  Level Albuquerque Center
04:12PM 35.1125 -110.8617 253° West 412 474 38,000  Level Albuquerque Center
04:13PM 35.0864 -111.0167 258° West 413 475 38,000  Level Albuquerque Center
04:14PM 35.0650 -111.1467 259° West 423 487 38,000  Level Albuquerque Center
04:15PM 35.0383 -111.2833 257° West 420 483 38,000  Level Albuquerque Center
04:16PM 35.0122 -111.4192 257° West 415 478 38,000  Level Albuquerque Center
04:17PM 34.9814 -111.5825 257° West 414 476 38,000  Level Albuquerque Center
04:18PM 34.9564 -111.7178 257° West 413 475 38,000  Level Albuquerque Center
04:19PM 34.9336 -111.8394 257° West 413 475 38,000  Level Albuquerque Center
04:20PM 34.9067 -111.9758 256° West 415 478 38,000  Level Albuquerque Center
04:21PM 34.8753 -112.1375 257° West 413 475 38,000  Level Albuquerque Center
04:22PM 34.8494 -112.2739 257° West 413 475 38,000  Level Albuquerque Center
04:23PM 34.8228 -112.4100 257° West 414 476 38,000  Level Albuquerque Center
04:24PM 34.7956 -112.5456 256° West 413 475 38,000  Level Albuquerque Center
04:25PM 34.7692 -112.6825 257° West 415 478 38,000  Level Albuquerque Center
04:26PM 34.7419 -112.8200 256° West 417 480 38,000  Level Albuquerque Center
04:27PM 34.7147 -112.9556 256° West 416 479 38,000  Level Albuquerque Center
04:28PM 34.6817 -113.1189 256° West 416 479 38,000  Level Albuquerque Center
04:29PM 34.6528 -113.2542 255° West 415 478 38,000  Level Albuquerque Center
04:30PM 34.6261 -113.3911 257° West 416 479 38,000  Level Albuquerque Center
04:31PM 34.5981 -113.5278 256° West 417 480 38,000  Level Albuquerque Center
04:32PM 34.5689 -113.6661 256° West 417 480 38,000  Level Albuquerque Center
04:33PM 34.5394 -113.8033 255° West 419 482 38,000  Level Albuquerque Center
04:34PM 34.5111 -113.9392 256° West 417 480 38,000  Level Albuquerque Center
04:35PM 34.4822 -114.0769 256° West 420 483 38,000  Level Albuquerque Center
04:36PM 34.4528 -114.2242 256° West 416 479 38,000  Level Los Angeles Center
04:37PM 34.4219 -114.3617 255° West 423 487 38,000  Level Los Angeles Center
04:38PM 34.3942 -114.4972 256° West 417 480 38,000  Level Los Angeles Center
04:39PM 34.3583 -114.6628 255° West 424 488 38,000  Level Los Angeles Center
04:40PM 34.3289 -114.7978 255° West 418 481 38,000  Level Los Angeles Center
04:41PM 34.2992 -114.9350 255° West 422 486 38,000 -180 Level Los Angeles Center
04:42PM 34.2692 -115.0711 255° West 421 484 37,700 -840 Descending Los Angeles Center
04:43PM 34.2394 -115.2075 255° West 421 484 36,300 -1,680 Descending Los Angeles Center
04:44PM 34.2078 -115.3436 254° West 423 487 34,300 -3,060 Descending Los Angeles Center
04:45PM 34.1689 -115.5142 255° West 434 499 30,000 -2,580 Descending Los Angeles Center
04:46PM 34.1378 -115.6567 255° West 440 506 29,000 -540 Descending Los Angeles Center
04:48PM 34.1064 -115.8022 255° West 450 518 29,000  Level Los Angeles Center
04:49PM 34.0858 -115.9494 260° West 448 516 29,000 -300 Level Los Angeles Center
04:50PM 34.0644 -116.0969 260° West 449 517 28,500 -660 Descending Los Angeles Center
04:51PM 34.0422 -116.2425 260° West 445 512 27,700 -900 Descending Los Angeles Center
04:52PM 34.0153 -116.4139 259° West 437 503 26,700 -840 Descending Los Angeles Center
04:53PM 33.9992 -116.5572 262° West 433 498 26,000 -1,020 Descending Los Angeles Center
04:54PM 33.9883 -116.6986 265° West 428 493 24,600 -2,100 Descending Los Angeles Center
04:55PM 33.9778 -116.8347 265° West 414 476 21,700 -3,060 Descending Los Angeles Center
04:56PM 33.9667 -116.9833 265° West 398 458 18,600 -2,460 Descending Southern California TRACON
04:57PM 33.9500 -117.1000 260° West 388 447 17,000 -1,320 Descending Southern California TRACON
04:58PM 33.9500 -117.2167 270° West 347 399 16,000 -960 Descending Southern California TRACON
04:59PM 33.9333 -117.3333 260° West 344 396 15,100 -1,260 Descending Southern California TRACON
05:00PM 33.9500 -117.4500 280° West 339 390 13,500 -1,560 Descending Southern California TRACON
05:01PM 34.0000 -117.5500 301° West 326 375 12,000 -1,560 Descending Southern California TRACON
05:02PM 34.0167 -117.6500 281° West 327 376 10,400 -1,320 Descending Southern California TRACON
05:03PM 34.0000 -117.7500 259° West 275 316 9,400 -1,200 Descending Southern California TRACON
05:04PM 34.0000 -117.8333 270° West 281 323 8,000 -1,320 Descending Southern California TRACON
05:05PM 33.9833 -117.9333 259° West 276 318 6,800 -1,080 Descending Southern California TRACON
05:06PM 33.9667 -118.0167 256° West 254 292 5,900 -1,020 Descending Southern California TRACON
05:07PM 33.9667 -118.1000 270° West 238 274 4,800 -1,140 Descending Southern California TRACON
05:08PM 33.9667 -118.1667 270° West 194 223 3,700 -1,080 Descending Southern California TRACON
05:09PM 33.9500 -118.2333 253° West 186 214 2,700 -1,020 Descending Southern California TRACON